createdAt,value
2019-01-21T00:00:32.532Z,6.18
2019-01-21T00:03:05.815Z,6.08
2019-01-21T00:05:37.342Z,6.15
2019-01-21T00:08:09.015Z,6.18
2019-01-21T00:10:40.575Z,6.17
2019-01-21T00:13:12.082Z,6.10
2019-01-21T00:15:43.670Z,6.08
2019-01-21T00:18:15.160Z,6.12
2019-01-21T00:20:46.649Z,6.20
2019-01-21T00:23:18.129Z,6.12
2019-01-21T00:25:49.633Z,6.14
2019-01-21T00:28:21.294Z,5.98
2019-01-21T00:30:52.819Z,5.87
2019-01-21T00:33:24.327Z,5.85
2019-01-21T00:35:55.876Z,5.69
2019-01-21T00:38:27.321Z,5.56
2019-01-21T00:40:58.834Z,5.41
2019-01-21T00:43:30.422Z,5.21
2019-01-21T00:46:02.040Z,5.14
2019-01-21T00:48:33.622Z,5.06
2019-01-21T00:51:05.103Z,5.08
2019-01-21T00:53:36.577Z,5.02
2019-01-21T00:56:08.078Z,4.96
2019-01-21T00:58:39.607Z,4.97
2019-01-21T01:01:11.034Z,5.08
2019-01-21T01:03:42.608Z,4.98
2019-01-21T01:06:14.309Z,4.93
2019-01-21T01:08:45.816Z,4.81
2019-01-21T01:11:17.390Z,4.71
2019-01-21T01:13:48.921Z,4.62
2019-01-21T01:16:20.329Z,4.60
2019-01-21T01:18:51.906Z,4.54
2019-01-21T01:21:23.478Z,4.51
2019-01-21T01:23:55.023Z,4.40
2019-01-21T01:26:26.678Z,4.45
2019-01-21T01:28:58.242Z,4.41
2019-01-21T01:31:29.815Z,4.46
2019-01-21T01:34:01.322Z,4.38
2019-01-21T01:36:32.895Z,4.37
2019-01-21T01:39:05.801Z,4.30
2019-01-21T01:41:37.339Z,4.31
2019-01-21T01:44:08.884Z,4.27
2019-01-21T01:46:40.412Z,4.35
2019-01-21T01:49:12.089Z,4.35
2019-01-21T01:51:43.520Z,4.32
2019-01-21T01:54:15.176Z,4.27
2019-01-21T01:56:49.436Z,4.31
2019-01-21T01:59:21.022Z,4.29
2019-01-21T02:01:52.488Z,4.24
2019-01-21T02:04:24.020Z,4.18
2019-01-21T02:06:55.462Z,4.12
2019-01-21T02:09:27.283Z,4.12
2019-01-21T02:11:58.691Z,4.06
2019-01-21T02:14:30.174Z,3.95
2019-01-21T02:17:01.626Z,3.88
2019-01-21T02:19:33.251Z,3.82
2019-01-21T02:22:04.814Z,3.71
2019-01-21T02:24:42.003Z,3.68
2019-01-21T02:27:22.171Z,3.59
2019-01-21T02:30:26.175Z,3.43
2019-01-21T02:33:34.199Z,3.24
2019-01-21T02:36:49.148Z,3.21
2019-01-21T02:39:38.933Z,3.11
2019-01-21T02:42:53.784Z,3.07
2019-01-21T02:45:55.424Z,3.02
2019-01-21T02:48:49.321Z,3.00
2019-01-21T02:51:33.103Z,2.85
2019-01-21T02:54:24.576Z,2.73
2019-01-21T02:57:27.360Z,2.77
2019-01-21T03:00:39.550Z,2.64
2019-01-21T03:04:05.156Z,2.61
2019-01-21T03:06:46.877Z,2.59
2019-01-21T03:10:19.970Z,2.61
2019-01-21T03:13:35.800Z,2.40
2019-01-21T03:16:49.606Z,2.41
2019-01-21T03:20:00.727Z,2.19
2019-01-21T03:23:02.198Z,2.15
2019-01-21T03:26:18.858Z,2.12
2019-01-21T03:29:29.659Z,2.08
2019-01-21T03:32:27.150Z,1.90
2019-01-21T03:35:38.654Z,1.81
2019-01-21T03:39:01.071Z,1.91
2019-01-21T03:42:12.393Z,1.82
2019-01-21T03:45:32.368Z,1.82
2019-01-21T03:48:34.766Z,1.81
2019-01-21T03:51:51.259Z,1.67
2019-01-21T03:54:31.472Z,1.69
2019-01-21T03:58:01.700Z,1.73
2019-01-21T04:00:55.219Z,1.59
2019-01-21T04:03:52.687Z,1.60
2019-01-21T04:06:48.608Z,1.66
2019-01-21T04:09:42.127Z,1.63
2019-01-21T04:13:02.647Z,1.60
2019-01-21T04:16:15.838Z,1.56
2019-01-21T04:19:17.837Z,1.56
2019-01-21T04:22:26.216Z,1.55
2019-01-21T04:25:30.135Z,1.53
2019-01-21T04:28:36.033Z,1.45
2019-01-21T04:31:22.412Z,1.41
2019-01-21T04:34:13.976Z,1.39
2019-01-21T04:37:26.344Z,1.47
2019-01-21T04:40:25.722Z,1.45
2019-01-21T04:43:30.157Z,1.40
2019-01-21T04:46:36.647Z,1.38
2019-01-21T04:49:44.435Z,1.37
2019-01-21T04:52:49.769Z,1.33
2019-01-21T04:56:02.433Z,1.40
2019-01-21T04:59:20.514Z,1.35
2019-01-21T05:02:29.926Z,1.36
2019-01-21T05:05:42.014Z,1.32
2019-01-21T05:09:06.032Z,1.26
2019-01-21T05:12:39.010Z,1.20
2019-01-21T05:15:32.253Z,1.15
2019-01-21T05:18:41.282Z,1.21
2019-01-21T05:21:52.546Z,1.24
2019-01-21T05:24:55.454Z,1.24
2019-01-21T05:28:10.754Z,1.28
2019-01-21T05:31:21.391Z,1.26
2019-01-21T05:34:23.210Z,1.28
2019-01-21T05:37:32.969Z,1.29
2019-01-21T05:40:27.891Z,1.31
2019-01-21T05:43:30.362Z,1.40
2019-01-21T05:46:16.420Z,1.37
2019-01-21T05:49:31.800Z,1.39
2019-01-21T05:52:49.511Z,1.45
2019-01-21T05:56:02.823Z,1.32
2019-01-21T05:59:19.010Z,1.24
2019-01-21T06:02:19.960Z,1.12
2019-01-21T06:05:34.010Z,1.24
2019-01-21T06:08:37.558Z,1.09
2019-01-21T06:12:02.389Z,1.05
2019-01-21T06:15:08.937Z,1.08
2019-01-21T06:18:16.850Z,1.09
2019-01-21T06:21:30.587Z,1.11
2019-01-21T06:24:31.180Z,1.00
2019-01-21T06:28:04.328Z,1.05
2019-01-21T06:31:07.047Z,1.10
2019-01-21T06:34:24.514Z,1.11
2019-01-21T06:37:16.546Z,1.14
2019-01-21T06:40:30.504Z,1.11
2019-01-21T06:43:30.821Z,1.12
2019-01-21T06:46:41.465Z,1.12
2019-01-21T06:50:14.874Z,1.08
2019-01-21T06:53:28.549Z,1.01
2019-01-21T06:56:32.585Z,1.05
2019-01-21T06:59:50.120Z,1.08
2019-01-21T07:03:00.276Z,1.10
2019-01-21T07:06:31.556Z,1.09
2019-01-21T07:09:29.197Z,1.05
2019-01-21T07:12:49.816Z,1.10
2019-01-21T07:16:07.844Z,1.20
2019-01-21T07:19:02.320Z,1.02
2019-01-21T07:22:08.283Z,1.10
2019-01-21T07:25:08.932Z,1.13
2019-01-21T07:28:14.639Z,1.10
2019-01-21T07:31:31.220Z,1.12
2019-01-21T07:34:31.883Z,1.10
2019-01-21T07:37:20.385Z,1.19
2019-01-21T07:40:26.316Z,1.16
2019-01-21T07:43:41.515Z,1.11
2019-01-21T07:46:57.859Z,1.07
2019-01-21T07:49:57.692Z,1.12
2019-01-21T07:53:24.323Z,1.15
2019-01-21T07:56:32.080Z,1.26
2019-01-21T07:59:41.166Z,1.27
2019-01-21T08:02:49.580Z,1.25
2019-01-21T08:05:58.735Z,1.15
2019-01-21T08:09:10.441Z,1.04
2019-01-21T08:12:25.720Z,1.07
2019-01-21T08:15:16.615Z,1.05
2019-01-21T08:18:31.993Z,1.12
2019-01-21T08:21:43.919Z,1.15
2019-01-21T08:24:48.235Z,1.18
2019-01-21T08:27:51.285Z,1.18
2019-01-21T08:30:49.582Z,1.23
2019-01-21T08:34:16.563Z,1.23
2019-01-21T08:37:21.282Z,1.28
2019-01-21T08:40:57.607Z,1.31
2019-01-21T08:43:59.098Z,1.31
2019-01-21T08:47:14.842Z,1.30
2019-01-21T08:50:12.078Z,1.34
2019-01-21T08:53:38.157Z,1.36
2019-01-21T08:56:30.271Z,1.30
2019-01-21T08:59:23.507Z,1.30
2019-01-21T09:02:53.685Z,1.20
2019-01-21T09:05:47.482Z,1.30
2019-01-21T09:08:59.446Z,1.30
2019-01-21T09:11:52.428Z,1.48
2019-01-21T09:15:13.303Z,1.58
2019-01-21T09:18:17.485Z,1.85
2019-01-21T09:21:13.592Z,1.87
2019-01-21T09:24:12.050Z,1.86
2019-01-21T09:27:09.305Z,1.86
2019-01-21T09:30:13.824Z,1.87
2019-01-21T09:33:35.156Z,1.90
2019-01-21T09:36:40.390Z,1.83
2019-01-21T09:39:55.423Z,1.76
2019-01-21T09:43:08.977Z,1.65
2019-01-21T09:46:17.054Z,1.70
2019-01-21T09:48:46.155Z,1.65
2019-01-21T09:51:18.232Z,1.61
2019-01-21T09:53:54.775Z,1.71
2019-01-21T09:56:26.223Z,1.73
2019-01-21T09:58:59.815Z,1.72
2019-01-21T10:01:32.140Z,1.55
2019-01-21T10:04:04.825Z,1.56
2019-01-21T10:07:12.329Z,1.66
2019-01-21T10:10:02.269Z,1.73
2019-01-21T10:13:41.637Z,1.64
2019-01-21T10:16:42.807Z,1.54
2019-01-21T10:19:42.164Z,1.45
2019-01-21T10:22:43.595Z,1.43
2019-01-21T10:25:41.352Z,1.41
2019-01-21T10:28:25.950Z,1.35
2019-01-21T10:31:30.920Z,1.50
2019-01-21T10:34:28.811Z,1.62
2019-01-21T10:37:23.567Z,1.69
2019-01-21T10:40:23.094Z,1.72
2019-01-21T10:43:24.731Z,1.80
2019-01-21T10:46:33.854Z,1.66
2019-01-21T10:49:46.063Z,1.60
2019-01-21T10:53:15.301Z,1.66
2019-01-21T10:56:23.256Z,1.72
2019-01-21T10:59:29.770Z,1.62
2019-01-21T11:02:19.630Z,1.73
2019-01-21T11:05:02.348Z,1.80
2019-01-21T11:08:12.133Z,1.90
2019-01-21T11:11:06.788Z,2.05
2019-01-21T11:14:04.656Z,1.92
2019-01-21T11:16:45.529Z,2.08
2019-01-21T11:20:18.503Z,2.19
2019-01-21T11:23:30.657Z,1.95
2019-01-21T11:26:56.682Z,1.79
2019-01-21T11:29:42.036Z,1.89
2019-01-21T11:32:43.215Z,2.09
2019-01-21T11:35:55.256Z,2.25
2019-01-21T11:39:30.760Z,2.47
2019-01-21T11:42:29.081Z,2.36
2019-01-21T11:45:30.352Z,2.34
2019-01-21T11:48:40.199Z,2.19
2019-01-21T11:51:56.533Z,2.15
2019-01-21T11:55:23.490Z,1.99
2019-01-21T11:59:02.536Z,1.88
2019-01-21T12:02:23.263Z,1.93
2019-01-21T12:05:17.637Z,2.06
2019-01-21T12:08:15.339Z,2.30
2019-01-21T12:11:19.736Z,2.40
2019-01-21T12:14:27.347Z,2.54
2019-01-21T12:17:23.644Z,2.50
2019-01-21T12:20:31.567Z,2.53
2019-01-21T12:23:30.674Z,2.41
2019-01-21T12:26:40.074Z,2.54
2019-01-21T12:29:44.510Z,2.44
2019-01-21T12:33:01.083Z,2.38
2019-01-21T12:35:47.281Z,2.37
2019-01-21T12:38:59.290Z,2.33
2019-01-21T12:42:01.876Z,2.43
2019-01-21T12:45:20.773Z,2.43
2019-01-21T12:48:29.285Z,2.50
2019-01-21T12:51:41.100Z,2.40
2019-01-21T12:54:27.007Z,2.44
2019-01-21T12:57:25.533Z,2.52
2019-01-21T13:00:28.979Z,2.61
2019-01-21T13:03:44.111Z,2.55
2019-01-21T13:06:53.409Z,2.57
2019-01-21T13:10:00.188Z,2.55
2019-01-21T13:13:15.061Z,2.47
2019-01-21T13:16:23.918Z,2.37
2019-01-21T13:19:48.344Z,2.42
2019-01-21T13:22:36.795Z,2.38
2019-01-21T13:25:56.849Z,2.40
2019-01-21T13:28:52.259Z,2.27
2019-01-21T13:31:53.941Z,2.24
2019-01-21T13:34:54.265Z,2.17
2019-01-21T13:38:04.886Z,2.05
2019-01-21T13:41:17.640Z,1.96
2019-01-21T13:44:25.188Z,1.88
2019-01-21T13:47:31.743Z,1.91
2019-01-21T13:50:08.387Z,1.95
2019-01-21T13:53:50.421Z,1.67
2019-01-21T13:56:56.432Z,1.51
2019-01-21T14:00:04.194Z,1.29
2019-01-21T14:02:47.639Z,1.35
2019-01-21T14:06:14.011Z,1.39
2019-01-21T14:09:12.414Z,1.22
2019-01-21T14:12:01.097Z,1.07
2019-01-21T14:14:42.216Z,0.99
2019-01-21T14:17:45.906Z,1.05
2019-01-21T14:20:43.795Z,1.05
2019-01-21T14:24:04.794Z,0.96
2019-01-21T14:27:35.973Z,0.81
2019-01-21T14:30:57.559Z,0.72
2019-01-21T14:33:57.160Z,0.74
2019-01-21T14:37:20.962Z,0.75
2019-01-21T14:40:12.654Z,0.57
2019-01-21T14:43:20.438Z,0.58
2019-01-21T14:46:25.847Z,0.55
2019-01-21T14:49:23.364Z,0.40
2019-01-21T14:52:37.481Z,0.42
2019-01-21T14:55:28.602Z,0.37
2019-01-21T14:58:43.961Z,0.35
2019-01-21T15:01:38.755Z,0.37
2019-01-21T15:04:38.716Z,0.41
2019-01-21T15:07:17.876Z,0.37
2019-01-21T15:10:42.228Z,0.43
2019-01-21T15:13:45.193Z,0.44
2019-01-21T15:16:50.828Z,0.47
2019-01-21T15:19:52.519Z,0.44
2019-01-21T15:23:01.353Z,0.44
2019-01-21T15:26:21.213Z,0.45
2019-01-21T15:29:03.783Z,0.35
2019-01-21T15:32:21.888Z,0.33
2019-01-21T15:35:38.522Z,0.33
2019-01-21T15:38:38.227Z,0.46
2019-01-21T15:42:08.425Z,0.52
2019-01-21T15:45:18.732Z,0.54
2019-01-21T15:48:19.306Z,0.73
2019-01-21T15:51:11.900Z,0.86
2019-01-21T15:53:59.201Z,0.81
2019-01-21T15:57:21.139Z,0.64
2019-01-21T16:00:31.515Z,0.62
2019-01-21T16:03:55.803Z,0.49
2019-01-21T16:06:52.646Z,0.40
2019-01-21T16:09:54.168Z,0.33
2019-01-21T16:12:53.953Z,0.40
2019-01-21T16:15:55.134Z,0.34
2019-01-21T16:18:31.659Z,0.35
2019-01-21T16:21:43.772Z,0.26
2019-01-21T16:25:19.931Z,0.28
2019-01-21T16:28:27.618Z,0.36
2019-01-21T16:31:20.074Z,0.30
2019-01-21T16:34:46.158Z,0.32
2019-01-21T16:37:43.900Z,0.24
2019-01-21T16:40:46.740Z,0.20
2019-01-21T16:43:21.235Z,0.26
2019-01-21T16:45:52.837Z,0.12
2019-01-21T16:48:24.523Z,0.14
2019-01-21T16:50:56.146Z,-0.01
2019-01-21T16:53:27.730Z,0.02
2019-01-21T16:55:59.352Z,0.11
2019-01-21T16:58:30.927Z,0.05
2019-01-21T17:01:02.469Z,-0.04
2019-01-21T17:03:33.986Z,-0.15
2019-01-21T17:06:06.701Z,-0.03
2019-01-21T17:08:39.322Z,-0.14
2019-01-21T17:11:10.894Z,-0.08
2019-01-21T17:13:42.508Z,-0.05
2019-01-21T17:16:14.172Z,0.02
2019-01-21T17:18:45.707Z,-0.09
2019-01-21T17:21:17.211Z,-0.09
2019-01-21T17:23:48.788Z,-0.15
2019-01-21T17:26:20.427Z,-0.13
2019-01-21T17:28:52.028Z,-0.29
2019-01-21T17:31:23.639Z,-0.29
2019-01-21T17:33:55.139Z,-0.24
2019-01-21T17:36:26.751Z,-0.29
2019-01-21T17:38:58.430Z,-0.26
2019-01-21T17:41:31.316Z,-0.28
2019-01-21T17:44:03.258Z,-0.57
2019-01-21T17:46:34.780Z,-0.55
2019-01-21T17:49:06.465Z,-0.44
2019-01-21T17:51:38.078Z,-0.51
2019-01-21T17:54:09.716Z,-0.52
2019-01-21T17:56:41.431Z,-0.53
2019-01-21T17:59:15.282Z,-0.55
2019-01-21T18:01:47.021Z,-0.60
2019-01-21T18:04:19.277Z,-0.57
2019-01-21T18:06:50.884Z,-0.56
2019-01-21T18:09:22.416Z,-0.51
2019-01-21T18:11:53.969Z,-0.54
2019-01-21T18:14:26.899Z,-0.68
2019-01-21T18:16:58.468Z,-0.75
2019-01-21T18:19:30.126Z,-0.78
2019-01-21T18:22:01.961Z,-0.79
2019-01-21T18:24:33.682Z,-0.79
2019-01-21T18:27:05.245Z,-0.81
2019-01-21T18:29:38.439Z,-0.74
2019-01-21T18:32:10.096Z,-0.70
2019-01-21T18:34:42.733Z,-0.71
2019-01-21T18:37:14.403Z,-0.63
2019-01-21T18:39:46.035Z,-0.62
2019-01-21T18:42:17.687Z,-0.63
2019-01-21T18:44:49.376Z,-0.75
2019-01-21T18:47:20.897Z,-0.76
2019-01-21T18:49:52.570Z,-0.55
2019-01-21T18:52:24.210Z,-0.60
2019-01-21T18:54:55.928Z,-0.56
2019-01-21T18:57:27.513Z,-0.48
2019-01-21T18:59:58.952Z,-0.52
2019-01-21T19:02:30.628Z,-0.53
2019-01-21T19:05:02.048Z,-0.47
2019-01-21T19:07:35.025Z,-0.42
2019-01-21T19:10:07.871Z,-0.62
2019-01-21T19:12:39.478Z,-0.74
2019-01-21T19:15:15.880Z,-0.59
2019-01-21T19:17:47.628Z,-0.55
2019-01-21T19:20:19.329Z,-0.50
2019-01-21T19:22:50.926Z,-0.45
2019-01-21T19:25:22.593Z,-0.53
2019-01-21T19:27:54.500Z,-0.50
2019-01-21T19:30:27.634Z,-0.69
2019-01-21T19:32:59.218Z,-0.67
2019-01-21T19:35:38.678Z,-0.77
2019-01-21T19:38:10.223Z,-0.78
2019-01-21T19:40:41.767Z,-0.79
2019-01-21T19:43:13.302Z,-0.87
2019-01-21T19:45:44.952Z,-0.98
2019-01-21T19:48:16.521Z,-0.82
2019-01-21T19:50:48.113Z,-0.88
2019-01-21T19:53:19.709Z,-0.59
2019-01-21T19:55:51.227Z,-0.71
2019-01-21T19:58:22.722Z,-0.75
2019-01-21T20:00:54.397Z,-0.72
2019-01-21T20:03:25.998Z,-0.67
2019-01-21T20:05:57.565Z,-0.62
2019-01-21T20:08:29.151Z,-0.59
2019-01-21T20:11:00.924Z,-0.66
2019-01-21T20:13:32.344Z,-0.71
2019-01-21T20:16:04.005Z,-0.68
2019-01-21T20:18:35.560Z,-0.64
2019-01-21T20:21:07.088Z,-0.88
2019-01-21T20:23:38.601Z,-0.87
2019-01-21T20:26:10.076Z,-0.96
2019-01-21T20:28:41.564Z,-0.80
2019-01-21T20:31:13.089Z,-0.63
2019-01-21T20:33:44.714Z,-0.71
2019-01-21T20:36:17.615Z,-0.68
2019-01-21T20:38:49.755Z,-0.63
2019-01-21T20:41:21.495Z,-0.55
2019-01-21T20:43:54.550Z,-0.59
2019-01-21T20:46:26.146Z,-0.60
2019-01-21T20:48:57.767Z,-0.91
2019-01-21T20:51:29.446Z,-0.93
2019-01-21T20:54:01.051Z,-0.95
2019-01-21T20:56:32.648Z,-0.95
2019-01-21T20:59:04.317Z,-0.90
2019-01-21T21:01:35.859Z,-0.96
2019-01-21T21:04:07.404Z,-0.89
2019-01-21T21:06:38.981Z,-0.91
2019-01-21T21:09:10.992Z,-1.06
2019-01-21T21:11:42.628Z,-1.08
2019-01-21T21:14:14.220Z,-0.97
2019-01-21T21:16:45.662Z,-0.89
2019-01-21T21:19:17.149Z,-0.80
2019-01-21T21:21:48.750Z,-0.75
2019-01-21T21:24:21.029Z,-0.80
2019-01-21T21:26:52.982Z,-0.87
2019-01-21T21:29:24.381Z,-0.89
2019-01-21T21:31:55.925Z,-0.94
2019-01-21T21:34:27.729Z,-1.00
2019-01-21T21:36:59.367Z,-1.10
2019-01-21T21:39:30.898Z,-1.10
2019-01-21T21:42:02.576Z,-1.22
2019-01-21T21:44:34.572Z,-1.16
2019-01-21T21:47:08.196Z,-1.18
2019-01-21T21:49:39.777Z,-1.17
2019-01-21T21:52:13.136Z,-1.11
2019-01-21T21:54:45.291Z,-0.89
2019-01-21T21:57:16.890Z,-0.83
2019-01-21T21:59:48.566Z,-0.80
2019-01-21T22:02:20.220Z,-0.84
2019-01-21T22:04:53.332Z,-0.84
2019-01-21T22:07:24.864Z,-0.86
2019-01-21T22:09:56.463Z,-0.97
2019-01-21T22:12:28.553Z,-0.95
2019-01-21T22:15:00.110Z,-1.00
2019-01-21T22:17:32.060Z,-0.99
2019-01-21T22:20:03.597Z,-1.07
2019-01-21T22:22:35.135Z,-1.04
2019-01-21T22:25:26.809Z,-0.92
2019-01-21T22:27:58.413Z,-0.81
2019-01-21T22:30:30.300Z,-0.69
2019-01-21T22:33:04.516Z,-0.62
2019-01-21T22:35:36.404Z,-0.59
2019-01-21T22:38:07.977Z,-0.62
2019-01-21T22:40:39.414Z,-0.67
2019-01-21T22:43:11.410Z,-0.61
2019-01-21T22:45:43.228Z,-0.74
2019-01-21T22:48:14.819Z,-0.69
2019-01-21T22:50:46.403Z,-0.57
2019-01-21T22:53:17.916Z,-0.63
2019-01-21T22:55:49.446Z,-0.55
2019-01-21T22:58:20.996Z,-0.79
2019-01-21T23:01:23.111Z,-0.91
2019-01-21T23:03:54.998Z,-1.18
2019-01-21T23:06:27.639Z,-1.23
2019-01-21T23:08:59.112Z,-1.07
2019-01-21T23:11:30.676Z,-0.93
2019-01-21T23:14:03.618Z,-0.94
2019-01-21T23:16:36.555Z,-0.96
2019-01-21T23:19:09.405Z,-1.10
2019-01-21T23:21:40.914Z,-0.97
2019-01-21T23:24:12.523Z,-0.80
2019-01-21T23:26:44.007Z,-0.84
2019-01-21T23:29:15.432Z,-0.70
2019-01-21T23:31:48.139Z,-0.80
2019-01-21T23:38:03.406Z,-0.94
2019-01-21T23:40:34.919Z,-0.92
2019-01-21T23:43:06.443Z,-0.98
2019-01-21T23:45:37.987Z,-1.07
2019-01-21T23:48:09.732Z,-1.31
2019-01-21T23:50:41.244Z,-1.17
2019-01-21T23:53:12.854Z,-1.12
2019-01-21T23:55:44.377Z,-1.27
2019-01-21T23:58:15.857Z,-1.31
